createdAt,value
2018-12-31T00:04:00.022Z,24.20
2018-12-31T00:06:27.330Z,24.33
2018-12-31T00:08:54.661Z,24.70
2018-12-31T00:11:21.979Z,26.47
2018-12-31T00:13:49.537Z,25.37
2018-12-31T00:16:17.202Z,24.87
2018-12-31T00:18:44.538Z,25.33
2018-12-31T00:21:11.878Z,23.20
2018-12-31T00:23:39.212Z,22.50
2018-12-31T00:26:06.533Z,22.87
2018-12-31T00:28:33.864Z,22.67
2018-12-31T00:31:01.422Z,22.27
2018-12-31T00:33:28.762Z,22.40
2018-12-31T00:35:56.099Z,21.87
2018-12-31T00:38:23.437Z,22.53
2018-12-31T00:40:50.741Z,22.93
2018-12-31T00:43:18.070Z,21.50
2018-12-31T00:45:45.384Z,21.87
2018-12-31T00:48:12.693Z,22.30
2018-12-31T00:50:40.033Z,20.70
2018-12-31T00:53:07.346Z,21.30
2018-12-31T00:55:35.040Z,20.83
2018-12-31T00:58:03.716Z,19.87
2018-12-31T01:00:31.031Z,21.20
2018-12-31T01:02:58.361Z,20.80
2018-12-31T01:05:25.677Z,19.73
2018-12-31T01:07:53.005Z,20.40
2018-12-31T01:10:20.328Z,18.97
2018-12-31T01:12:47.643Z,19.23
2018-12-31T01:15:15.222Z,20.03
2018-12-31T01:17:42.890Z,19.43
2018-12-31T01:20:10.198Z,19.37
2018-12-31T01:22:37.550Z,18.37
2018-12-31T01:25:05.253Z,18.60
2018-12-31T01:27:32.577Z,18.47
2018-12-31T01:29:59.904Z,19.57
2018-12-31T01:32:27.227Z,18.57
2018-12-31T01:34:54.874Z,19.53
2018-12-31T01:37:22.191Z,19.90
2018-12-31T01:39:49.790Z,19.93
2018-12-31T01:42:17.450Z,19.80
2018-12-31T01:44:44.778Z,19.03
2018-12-31T01:47:12.081Z,19.93
2018-12-31T01:49:39.410Z,19.27
2018-12-31T01:52:26.061Z,19.57
2018-12-31T01:54:53.385Z,18.73
2018-12-31T01:57:20.716Z,18.77
2018-12-31T01:59:48.026Z,17.43
2018-12-31T02:02:15.338Z,18.00
2018-12-31T02:04:42.673Z,19.17
2018-12-31T02:07:09.981Z,19.00
2018-12-31T02:09:37.305Z,19.57
2018-12-31T02:12:04.619Z,19.00
2018-12-31T02:14:31.930Z,18.43
2018-12-31T02:16:59.282Z,17.93
2018-12-31T02:19:26.606Z,18.53
2018-12-31T02:21:53.929Z,19.07
2018-12-31T02:24:21.238Z,18.83
2018-12-31T02:26:48.864Z,19.43
2018-12-31T02:29:16.169Z,19.03
2018-12-31T02:31:43.482Z,18.83
2018-12-31T02:34:10.816Z,18.17
2018-12-31T02:36:38.478Z,18.17
2018-12-31T02:42:13.057Z,17.83
2018-12-31T02:44:40.371Z,17.40
2018-12-31T02:47:07.683Z,17.70
2018-12-31T02:49:35.290Z,17.60
2018-12-31T02:52:02.605Z,16.87
2018-12-31T02:54:29.919Z,16.83
2018-12-31T02:56:57.241Z,16.47
2018-12-31T02:59:24.562Z,16.57
2018-12-31T03:01:51.891Z,16.10
2018-12-31T03:04:19.201Z,14.80
2018-12-31T03:06:46.766Z,14.03
2018-12-31T03:09:14.089Z,15.27
2018-12-31T03:11:41.721Z,15.23
2018-12-31T03:14:09.081Z,14.23
2018-12-31T03:16:36.387Z,14.40
2018-12-31T03:19:04.045Z,13.40
2018-12-31T03:21:31.703Z,14.33
2018-12-31T03:23:59.369Z,14.00
2018-12-31T03:26:26.681Z,13.47
2018-12-31T03:28:54.006Z,13.43
2018-12-31T03:31:21.330Z,12.70
2018-12-31T03:33:48.643Z,12.40
2018-12-31T03:36:15.978Z,12.67
2018-12-31T03:38:43.590Z,12.53
2018-12-31T03:41:10.902Z,11.60
2018-12-31T03:43:38.505Z,11.63
2018-12-31T03:46:06.162Z,12.17
2018-12-31T03:48:33.727Z,11.50
2018-12-31T03:51:01.042Z,11.87
2018-12-31T03:53:28.372Z,11.17
2018-12-31T03:55:55.682Z,11.93
2018-12-31T03:58:23.238Z,11.40
2018-12-31T04:00:50.562Z,11.20
2018-12-31T04:03:17.886Z,11.63
2018-12-31T04:05:45.198Z,11.70
2018-12-31T04:08:12.862Z,12.03
2018-12-31T04:10:40.207Z,12.27
2018-12-31T04:13:07.522Z,12.03
2018-12-31T04:15:34.838Z,11.90
2018-12-31T04:18:02.484Z,12.13
2018-12-31T04:20:29.793Z,12.83
2018-12-31T04:22:57.118Z,13.57
2018-12-31T04:25:24.457Z,12.07
2018-12-31T04:27:51.766Z,11.73
2018-12-31T04:30:19.450Z,12.47
2018-12-31T04:32:46.767Z,12.57
2018-12-31T04:35:14.074Z,12.63
2018-12-31T04:37:41.407Z,13.60
2018-12-31T04:40:08.791Z,13.10
2018-12-31T04:42:36.099Z,12.83
2018-12-31T04:45:14.637Z,13.37
2018-12-31T04:47:41.957Z,13.07
2018-12-31T04:50:09.288Z,14.07
2018-12-31T04:52:36.906Z,13.33
2018-12-31T04:55:04.290Z,13.73
2018-12-31T04:57:31.615Z,15.27
2018-12-31T04:59:58.930Z,13.73
2018-12-31T05:02:26.238Z,13.30
2018-12-31T05:04:53.566Z,14.00
2018-12-31T05:07:20.878Z,15.83
2018-12-31T05:09:48.201Z,17.20
2018-12-31T05:12:15.833Z,16.57
2018-12-31T05:14:43.152Z,18.40
2018-12-31T05:17:10.479Z,17.43
2018-12-31T05:19:37.865Z,17.37
2018-12-31T05:22:05.209Z,19.07
2018-12-31T05:24:32.521Z,19.10
2018-12-31T05:26:59.833Z,19.13
2018-12-31T05:29:27.164Z,21.10
2018-12-31T05:31:54.495Z,19.70
2018-12-31T05:34:21.802Z,19.13
2018-12-31T05:36:49.109Z,18.67
2018-12-31T05:39:16.441Z,18.97
2018-12-31T05:41:43.758Z,19.80
2018-12-31T05:44:11.070Z,20.87
2018-12-31T05:46:38.403Z,20.50
2018-12-31T05:49:05.711Z,20.63
2018-12-31T05:51:33.287Z,21.10
2018-12-31T05:54:00.613Z,21.80
2018-12-31T05:56:27.921Z,21.33
2018-12-31T05:58:55.555Z,22.33
2018-12-31T06:01:22.878Z,22.43
2018-12-31T06:03:50.470Z,21.10
2018-12-31T06:06:18.029Z,21.20
2018-12-31T06:08:45.374Z,20.90
2018-12-31T06:11:12.707Z,22.10
2018-12-31T06:13:40.049Z,20.90
2018-12-31T06:16:07.358Z,21.10
2018-12-31T06:18:34.665Z,20.10
2018-12-31T06:21:01.995Z,21.07
2018-12-31T06:23:29.307Z,19.87
2018-12-31T06:25:56.618Z,19.53
2018-12-31T06:31:18.117Z,20.60
2018-12-31T06:33:45.435Z,21.53
2018-12-31T06:36:12.750Z,21.97
2018-12-31T06:38:40.074Z,22.33
2018-12-31T06:41:07.392Z,25.03
2018-12-31T06:43:34.716Z,22.00
2018-12-31T06:46:02.038Z,22.13
2018-12-31T06:48:29.350Z,21.30
2018-12-31T06:50:56.917Z,19.00
2018-12-31T06:53:24.225Z,21.60
2018-12-31T06:55:51.557Z,19.90
2018-12-31T06:58:18.871Z,18.80
2018-12-31T07:00:46.206Z,18.73
2018-12-31T07:03:13.517Z,19.40
2018-12-31T07:05:40.862Z,19.43
2018-12-31T07:08:08.496Z,18.70
2018-12-31T07:10:35.805Z,19.27
2018-12-31T07:13:03.133Z,20.33
2018-12-31T07:15:30.458Z,19.17
2018-12-31T07:17:57.784Z,19.97
2018-12-31T07:20:25.094Z,20.83
2018-12-31T07:22:52.405Z,20.20
2018-12-31T07:25:19.733Z,20.77
2018-12-31T07:27:47.058Z,21.43
2018-12-31T07:30:14.381Z,21.27
2018-12-31T07:32:41.693Z,21.37
2018-12-31T07:35:09.282Z,22.17
2018-12-31T07:37:37.247Z,23.97
2018-12-31T07:40:05.897Z,22.70
2018-12-31T07:42:33.490Z,23.70
2018-12-31T07:45:00.837Z,24.40
2018-12-31T07:47:28.166Z,25.57
2018-12-31T07:50:14.969Z,24.57
2018-12-31T07:52:42.277Z,25.73
2018-12-31T07:55:09.582Z,28.23
2018-12-31T07:57:36.911Z,28.03
2018-12-31T08:00:25.063Z,27.47
2018-12-31T08:02:52.669Z,28.20
2018-12-31T08:05:20.356Z,29.27
2018-12-31T08:07:48.603Z,28.00
2018-12-31T08:10:16.772Z,26.87
2018-12-31T08:12:44.153Z,28.73
2018-12-31T08:15:11.791Z,29.60
2018-12-31T08:17:39.117Z,27.60
2018-12-31T08:20:06.706Z,28.77
2018-12-31T08:22:34.026Z,38.13
2018-12-31T08:25:01.373Z,34.83
2018-12-31T08:27:28.754Z,27.93
2018-12-31T08:29:56.065Z,29.47
2018-12-31T08:32:23.683Z,28.60
2018-12-31T08:34:51.023Z,30.70
2018-12-31T08:37:18.362Z,30.47
2018-12-31T08:39:45.701Z,29.60
2018-12-31T08:42:13.297Z,29.30
2018-12-31T08:44:40.991Z,27.40
2018-12-31T08:47:08.298Z,29.07
2018-12-31T08:49:35.614Z,28.87
2018-12-31T08:52:02.925Z,28.70
2018-12-31T08:54:30.601Z,30.00
2018-12-31T08:56:58.238Z,32.23
2018-12-31T08:59:25.549Z,31.33
2018-12-31T09:01:53.153Z,30.77
2018-12-31T09:04:20.478Z,32.10
2018-12-31T09:06:48.062Z,30.80
2018-12-31T09:09:15.387Z,31.27
2018-12-31T09:11:42.697Z,31.87
2018-12-31T09:14:10.333Z,34.20
2018-12-31T09:16:37.665Z,33.07
2018-12-31T09:19:04.978Z,32.70
2018-12-31T09:21:32.310Z,32.00
2018-12-31T09:23:59.653Z,32.23
2018-12-31T09:26:26.969Z,32.43
2018-12-31T09:28:54.305Z,32.03
2018-12-31T09:31:21.693Z,32.03
2018-12-31T09:33:49.033Z,32.90
2018-12-31T09:36:16.377Z,31.87
2018-12-31T09:38:43.693Z,32.77
2018-12-31T09:41:11.010Z,33.60
2018-12-31T09:43:38.354Z,32.30
2018-12-31T09:46:05.933Z,34.10
2018-12-31T09:48:33.596Z,35.80
2018-12-31T09:51:00.922Z,37.53
2018-12-31T09:53:28.257Z,37.80
2018-12-31T09:55:55.585Z,43.27
2018-12-31T09:58:23.210Z,38.40
2018-12-31T10:00:50.530Z,38.57
2018-12-31T10:03:17.866Z,38.07
2018-12-31T10:05:45.193Z,35.77
2018-12-31T10:08:12.521Z,38.73
2018-12-31T10:10:39.865Z,37.20
2018-12-31T10:13:07.197Z,33.53
2018-12-31T10:15:34.530Z,34.87
2018-12-31T10:18:01.861Z,33.57
2018-12-31T10:20:29.173Z,37.27
2018-12-31T10:22:56.490Z,34.33
2018-12-31T10:25:23.825Z,35.60
2018-12-31T10:27:51.137Z,37.37
2018-12-31T10:30:18.450Z,36.03
2018-12-31T10:32:46.061Z,36.93
2018-12-31T10:35:13.378Z,35.77
2018-12-31T10:37:40.693Z,38.87
2018-12-31T10:43:01.781Z,36.93
2018-12-31T10:45:29.105Z,37.63
2018-12-31T10:47:56.457Z,37.33
2018-12-31T10:50:23.847Z,36.60
2018-12-31T10:52:51.188Z,36.23
2018-12-31T10:55:18.763Z,36.90
2018-12-31T10:57:46.102Z,38.53
2018-12-31T11:03:01.531Z,35.30
2018-12-31T11:05:28.858Z,38.17
2018-12-31T11:07:56.422Z,36.53
2018-12-31T11:10:23.769Z,34.70
2018-12-31T11:12:51.101Z,34.93
2018-12-31T11:15:18.417Z,35.03
2018-12-31T11:18:05.091Z,37.60
2018-12-31T11:20:32.418Z,38.57
2018-12-31T11:22:59.761Z,37.50
2018-12-31T11:25:27.094Z,32.57
2018-12-31T11:27:54.406Z,32.13
2018-12-31T11:30:22.061Z,32.37
2018-12-31T11:32:49.381Z,31.13
2018-12-31T11:35:16.974Z,31.77
2018-12-31T11:37:44.289Z,31.20
2018-12-31T11:40:11.885Z,33.23
2018-12-31T11:42:39.228Z,32.10
2018-12-31T11:48:00.725Z,33.30
2018-12-31T11:50:28.338Z,31.33
2018-12-31T11:52:55.659Z,31.37
2018-12-31T11:55:23.001Z,37.83
2018-12-31T11:57:50.310Z,33.27
2018-12-31T12:00:17.961Z,32.27
2018-12-31T12:02:45.302Z,34.17
2018-12-31T12:05:12.625Z,30.23
2018-12-31T12:07:39.953Z,30.00
2018-12-31T12:10:07.286Z,30.47
2018-12-31T12:12:34.942Z,30.17
2018-12-31T12:15:02.249Z,31.27
2018-12-31T12:17:29.578Z,31.07
2018-12-31T12:19:57.194Z,29.43
2018-12-31T12:22:24.525Z,28.40
2018-12-31T12:24:51.851Z,28.50
2018-12-31T12:27:19.153Z,29.83
2018-12-31T12:29:46.485Z,28.50
2018-12-31T12:32:14.075Z,28.47
2018-12-31T12:34:41.410Z,27.13
2018-12-31T12:37:10.442Z,28.80
2018-12-31T12:39:37.788Z,29.00
2018-12-31T12:42:05.099Z,27.87
2018-12-31T12:44:32.425Z,28.27
2018-12-31T12:46:59.760Z,26.70
2018-12-31T12:49:27.396Z,29.53
2018-12-31T12:51:54.812Z,28.43
2018-12-31T12:54:22.169Z,29.70
2018-12-31T12:56:49.477Z,29.13
2018-12-31T12:59:16.883Z,28.97
2018-12-31T13:01:44.490Z,32.80
2018-12-31T13:04:13.546Z,33.57
2018-12-31T13:06:40.878Z,30.73
2018-12-31T13:09:08.214Z,31.60
2018-12-31T13:17:02.462Z,30.67
2018-12-31T13:19:49.118Z,30.80
2018-12-31T13:22:16.733Z,32.53
2018-12-31T13:24:44.044Z,31.63
2018-12-31T13:27:11.354Z,32.40
2018-12-31T13:29:38.690Z,32.30
2018-12-31T13:32:05.998Z,31.90
2018-12-31T13:34:33.329Z,31.83
2018-12-31T13:37:00.978Z,31.33
2018-12-31T13:39:28.318Z,31.37
2018-12-31T13:41:55.686Z,30.10
2018-12-31T13:44:23.009Z,30.30
2018-12-31T13:46:50.346Z,31.00
2018-12-31T13:49:17.678Z,30.97
2018-12-31T13:51:44.995Z,30.03
2018-12-31T13:54:12.328Z,31.20
2018-12-31T13:57:06.666Z,31.13
2018-12-31T13:59:34.403Z,30.43
2018-12-31T14:02:02.069Z,33.10
2018-12-31T14:04:29.373Z,30.70
2018-12-31T14:06:56.710Z,34.87
2018-12-31T14:09:24.320Z,30.93
2018-12-31T14:11:53.614Z,32.60
2018-12-31T14:14:21.283Z,31.83
2018-12-31T14:16:48.944Z,33.00
2018-12-31T14:19:16.258Z,30.63
2018-12-31T14:21:43.872Z,30.97
2018-12-31T14:24:11.206Z,30.30
2018-12-31T14:26:38.772Z,30.90
2018-12-31T14:29:06.429Z,31.30
2018-12-31T14:31:33.761Z,31.77
2018-12-31T14:34:01.343Z,32.53
2018-12-31T14:36:28.678Z,31.67
2018-12-31T14:38:57.997Z,32.10
2018-12-31T14:41:25.325Z,32.43
2018-12-31T14:43:52.662Z,30.93
2018-12-31T14:46:20.294Z,30.87
2018-12-31T14:48:47.608Z,31.60
2018-12-31T14:51:14.938Z,31.10
2018-12-31T14:53:42.261Z,32.23
2018-12-31T14:56:09.878Z,30.53
2018-12-31T14:58:37.542Z,31.80
2018-12-31T15:01:04.874Z,31.80
2018-12-31T15:03:32.194Z,32.03
2018-12-31T15:05:59.509Z,31.50
2018-12-31T15:08:26.846Z,31.03
2018-12-31T15:10:54.159Z,31.33
2018-12-31T15:13:21.504Z,30.70
2018-12-31T15:15:48.825Z,30.27
2018-12-31T15:18:16.160Z,31.67
2018-12-31T15:20:46.108Z,28.87
2018-12-31T15:23:14.262Z,32.27
2018-12-31T15:25:41.572Z,31.53
2018-12-31T15:28:08.913Z,32.00
2018-12-31T15:30:36.513Z,31.03
2018-12-31T15:33:03.829Z,31.23
2018-12-31T15:35:31.438Z,31.70
2018-12-31T15:37:58.750Z,31.03
2018-12-31T15:40:26.090Z,32.30
2018-12-31T15:42:53.409Z,36.10
2018-12-31T15:45:20.742Z,33.70
2018-12-31T15:47:50.043Z,34.27
2018-12-31T15:50:17.361Z,31.80
2018-12-31T15:52:44.704Z,30.73
2018-12-31T15:55:12.019Z,31.17
2018-12-31T15:57:39.661Z,27.83
2018-12-31T16:03:00.896Z,31.43
2018-12-31T16:05:28.205Z,28.17
2018-12-31T16:07:55.806Z,28.80
2018-12-31T16:10:23.150Z,28.53
2018-12-31T16:12:50.454Z,27.63
2018-12-31T16:15:17.767Z,27.30
2018-12-31T16:17:45.098Z,26.80
2018-12-31T16:20:12.673Z,25.60
2018-12-31T16:22:40.010Z,26.87
2018-12-31T16:25:09.049Z,28.03
2018-12-31T16:27:36.382Z,28.37
2018-12-31T16:33:10.965Z,26.57
2018-12-31T16:35:38.577Z,28.07
2018-12-31T16:38:05.890Z,27.30
2018-12-31T16:40:33.237Z,27.83
2018-12-31T16:43:00.550Z,28.70
2018-12-31T16:45:29.585Z,34.90
2018-12-31T16:47:56.918Z,32.83
2018-12-31T16:50:24.239Z,32.23
2018-12-31T16:52:51.577Z,31.83
2018-12-31T16:55:18.897Z,30.80
2018-12-31T16:57:46.501Z,30.53
2018-12-31T17:00:13.843Z,29.70
2018-12-31T17:02:41.154Z,31.77
2018-12-31T17:05:08.477Z,30.43
2018-12-31T17:07:35.810Z,28.87
2018-12-31T17:10:23.942Z,30.23
2018-12-31T17:12:51.274Z,30.43
2018-12-31T17:15:18.613Z,30.20
2018-12-31T17:17:46.120Z,30.37
2018-12-31T17:20:13.732Z,29.10
2018-12-31T17:22:41.317Z,30.10
2018-12-31T17:27:47.246Z,28.80
2018-12-31T17:30:14.866Z,30.87
2018-12-31T17:32:42.334Z,30.27
2018-12-31T17:37:43.332Z,29.00
2018-12-31T17:40:10.972Z,30.07
2018-12-31T17:42:38.925Z,31.27
2018-12-31T17:45:06.885Z,34.10
2018-12-31T17:47:34.456Z,30.63
2018-12-31T17:50:02.036Z,34.70
2018-12-31T17:52:29.520Z,31.83
2018-12-31T17:54:56.898Z,33.57
2018-12-31T17:57:24.210Z,32.80
2018-12-31T17:59:51.517Z,29.97
2018-12-31T18:02:18.854Z,29.73
2018-12-31T18:04:46.162Z,30.40
2018-12-31T18:07:13.506Z,31.17
2018-12-31T18:09:40.888Z,30.10
2018-12-31T18:12:08.230Z,31.07
2018-12-31T18:14:35.573Z,28.00
2018-12-31T18:17:02.893Z,31.00
2018-12-31T18:19:30.213Z,30.30
2018-12-31T18:21:57.554Z,31.30
2018-12-31T18:24:24.886Z,30.93
2018-12-31T18:26:52.217Z,31.23
2018-12-31T18:29:19.530Z,31.43
2018-12-31T18:31:48.586Z,32.80
2018-12-31T18:34:15.903Z,30.53
2018-12-31T18:36:43.253Z,29.67
2018-12-31T18:39:10.570Z,30.93
2018-12-31T18:41:37.882Z,31.07
2018-12-31T18:44:05.230Z,30.63
2018-12-31T18:46:32.542Z,30.27
2018-12-31T18:48:59.894Z,29.83
2018-12-31T18:51:27.221Z,31.30
2018-12-31T18:53:54.626Z,30.17
2018-12-31T18:56:21.942Z,29.80
2018-12-31T18:58:49.282Z,31.20
2018-12-31T19:01:16.590Z,32.30
2018-12-31T19:03:43.901Z,32.07
2018-12-31T19:06:11.238Z,32.87
2018-12-31T19:08:38.550Z,33.10
2018-12-31T19:11:05.891Z,37.77
2018-12-31T19:13:33.205Z,35.03
2018-12-31T19:18:54.726Z,37.53
2018-12-31T19:21:22.046Z,36.23
2018-12-31T19:23:51.094Z,36.40
2018-12-31T19:26:18.690Z,32.83
2018-12-31T19:28:46.029Z,34.10
2018-12-31T19:31:13.434Z,33.03
2018-12-31T19:33:40.737Z,32.80
2018-12-31T19:36:08.306Z,33.57
2018-12-31T19:38:37.382Z,35.20
2018-12-31T19:41:04.701Z,33.03
2018-12-31T19:43:32.315Z,36.83
2018-12-31T19:45:59.652Z,47.27
2018-12-31T19:48:26.969Z,53.10
2018-12-31T19:50:54.586Z,54.03
2018-12-31T19:53:21.914Z,140.37
2018-12-31T19:55:49.258Z,96.37
2018-12-31T19:58:16.853Z,71.10
2018-12-31T20:00:44.206Z,47.47
2018-12-31T20:03:11.506Z,38.37
2018-12-31T20:05:38.845Z,39.17
2018-12-31T20:08:06.177Z,37.77
2018-12-31T20:10:34.594Z,37.50
2018-12-31T20:13:02.819Z,37.60
2018-12-31T20:15:30.369Z,39.00
2018-12-31T20:17:57.710Z,39.87
2018-12-31T20:20:29.121Z,41.80
2018-12-31T20:22:56.465Z,40.23
2018-12-31T20:25:24.193Z,39.60
2018-12-31T20:27:51.517Z,38.43
2018-12-31T20:30:18.866Z,39.37
2018-12-31T20:32:46.186Z,40.30
2018-12-31T20:35:15.238Z,38.87
2018-12-31T20:37:42.562Z,39.00
2018-12-31T20:40:09.911Z,38.83
2018-12-31T20:42:37.223Z,39.37
2018-12-31T20:48:01.862Z,38.30
2018-12-31T20:50:27.121Z,38.53
2018-12-31T20:52:54.432Z,39.00
2018-12-31T20:55:22.025Z,38.97
2018-12-31T20:57:49.337Z,41.60
2018-12-31T21:00:37.991Z,42.90
2018-12-31T21:03:05.306Z,40.23
2018-12-31T21:05:32.625Z,43.20
2018-12-31T21:07:59.996Z,47.00
2018-12-31T21:10:29.001Z,43.43
2018-12-31T21:12:56.343Z,45.30
2018-12-31T21:15:43.005Z,44.33
2018-12-31T21:18:10.333Z,39.73
2018-12-31T21:20:37.929Z,40.60
2018-12-31T21:23:05.249Z,38.70
2018-12-31T21:25:32.581Z,36.73
2018-12-31T21:27:59.931Z,36.87
2018-12-31T21:30:27.247Z,35.83
2018-12-31T21:32:54.565Z,36.83
2018-12-31T21:35:23.934Z,33.83
2018-12-31T21:37:51.242Z,35.97
2018-12-31T21:40:18.582Z,35.97
2018-12-31T21:42:45.894Z,33.40
2018-12-31T21:45:13.222Z,33.23
2018-12-31T21:47:40.558Z,34.77
2018-12-31T21:50:09.617Z,30.63
2018-12-31T21:52:36.953Z,31.53
2018-12-31T21:58:11.538Z,30.77
2018-12-31T22:00:38.869Z,31.73
2018-12-31T22:03:06.186Z,32.37
2018-12-31T22:05:33.847Z,33.27
2018-12-31T22:08:01.169Z,32.60
2018-12-31T22:10:28.514Z,33.63
2018-12-31T22:12:55.830Z,33.43
2018-12-31T22:15:23.170Z,36.43
2018-12-31T22:17:50.486Z,35.53
2018-12-31T22:20:17.799Z,37.00
2018-12-31T22:22:45.134Z,37.30
2018-12-31T22:25:12.781Z,38.10
2018-12-31T22:27:40.113Z,36.33
2018-12-31T22:33:14.698Z,34.87
2018-12-31T22:35:42.334Z,36.87
2018-12-31T22:38:09.649Z,36.63
2018-12-31T22:40:36.977Z,37.23
2018-12-31T22:45:52.389Z,37.37
2018-12-31T22:48:19.721Z,38.73
2018-12-31T22:50:47.031Z,38.30
2018-12-31T22:53:14.697Z,37.87
2018-12-31T22:55:42.030Z,36.57
2018-12-31T22:58:09.358Z,35.67
2018-12-31T23:03:24.769Z,61.30
2018-12-31T23:05:52.102Z,94.03
2018-12-31T23:08:19.470Z,488.53
2018-12-31T23:10:46.802Z,502.40
2018-12-31T23:13:14.422Z,397.27
2018-12-31T23:15:41.741Z,495.17
2018-12-31T23:18:09.093Z,358.17
2018-12-31T23:20:36.478Z,224.03
2018-12-31T23:23:03.806Z,213.43
2018-12-31T23:25:31.153Z,150.43
2018-12-31T23:27:58.488Z,148.97
2018-12-31T23:30:25.844Z,141.23
2018-12-31T23:32:53.170Z,156.67
2018-12-31T23:35:20.495Z,163.97
2018-12-31T23:37:47.850Z,169.23
2018-12-31T23:40:15.165Z,155.10
2018-12-31T23:42:42.482Z,149.57
2018-12-31T23:48:04.024Z,122.63
2018-12-31T23:50:31.653Z,96.37
2018-12-31T23:52:58.970Z,88.77
2018-12-31T23:55:26.306Z,80.47
2018-12-31T23:57:54.033Z,70.97
